createdAt,value
2023-01-10T00:00:16.142Z,88.05
2023-01-10T00:05:41.141Z,88.00
2023-01-10T00:10:45.183Z,87.94
2023-01-10T00:15:49.511Z,87.86
2023-01-10T00:20:53.247Z,87.85
2023-01-10T00:25:57.073Z,87.86
2023-01-10T00:31:02.376Z,87.87
2023-01-10T00:36:09.101Z,87.93
2023-01-10T00:41:32.713Z,87.93
2023-01-10T00:46:36.458Z,87.83
2023-01-10T00:51:40.070Z,87.97
2023-01-10T00:56:43.685Z,87.92
2023-01-10T01:01:47.612Z,87.86
2023-01-10T01:06:51.621Z,87.87
2023-01-10T01:11:56.616Z,87.95
2023-01-10T01:17:00.239Z,87.87
2023-01-10T01:22:03.960Z,87.87
2023-01-10T01:27:07.477Z,87.87
2023-01-10T01:32:11.155Z,87.85
2023-01-10T01:37:15.262Z,87.78
2023-01-10T01:42:30.947Z,87.79
2023-01-10T01:47:41.916Z,87.75
2023-01-10T01:52:49.004Z,87.82
2023-01-10T01:57:58.136Z,87.79
2023-01-10T02:03:03.730Z,87.68
2023-01-10T02:08:08.635Z,87.65
2023-01-10T02:13:16.697Z,87.60
2023-01-10T02:18:22.685Z,87.57
2023-01-10T02:24:01.291Z,87.49
2023-01-10T02:29:32.153Z,87.50
2023-01-10T02:35:24.723Z,87.46
2023-01-10T02:40:50.691Z,87.50
2023-01-10T02:46:14.082Z,87.58
2023-01-10T02:51:24.341Z,87.59
2023-01-10T02:56:49.838Z,87.53
2023-01-10T03:02:03.835Z,87.51
2023-01-10T03:07:44.146Z,87.46
2023-01-10T03:13:16.070Z,87.43
2023-01-10T03:18:39.533Z,87.25
2023-01-10T03:23:45.254Z,87.36
2023-01-10T03:29:01.155Z,87.27
2023-01-10T03:34:05.302Z,87.35
2023-01-10T03:39:48.111Z,87.51
2023-01-10T03:45:09.624Z,87.77
2023-01-10T03:50:24.883Z,87.55
2023-01-10T03:55:30.405Z,87.31
2023-01-10T04:00:34.360Z,87.19
2023-01-10T04:05:38.306Z,87.20
2023-01-10T04:10:42.230Z,87.31
2023-01-10T04:15:46.016Z,87.44
2023-01-10T04:20:52.082Z,87.39
2023-01-10T04:25:56.052Z,87.24
2023-01-10T04:30:59.892Z,87.26
2023-01-10T04:36:03.636Z,87.31
2023-01-10T04:41:07.381Z,87.55
2023-01-10T04:46:11.207Z,87.57
2023-01-10T04:51:15.089Z,87.53
2023-01-10T04:56:21.885Z,87.61
2023-01-10T05:01:27.169Z,87.78
2023-01-10T05:06:31.033Z,87.79
2023-01-10T05:11:34.729Z,87.91
2023-01-10T05:16:38.537Z,87.90
2023-01-10T05:21:42.339Z,88.01
2023-01-10T05:26:46.952Z,88.04
2023-01-10T05:31:52.452Z,88.21
2023-01-10T05:36:56.094Z,88.32
2023-01-10T05:42:00.686Z,88.24
2023-01-10T05:47:04.581Z,88.14
2023-01-10T05:52:08.710Z,88.11
2023-01-10T05:57:12.686Z,88.13
2023-01-10T06:02:16.368Z,88.26
2023-01-10T06:07:20.007Z,88.29
2023-01-10T06:12:23.674Z,88.32
2023-01-10T06:17:27.962Z,88.29
2023-01-10T06:22:31.983Z,88.18
2023-01-10T06:27:35.716Z,88.17
2023-01-10T06:32:39.589Z,88.17
2023-01-10T06:37:43.576Z,88.17
2023-01-10T06:42:47.188Z,88.07
2023-01-10T06:47:50.894Z,88.32
2023-01-10T06:53:00.581Z,88.48
2023-01-10T06:58:05.398Z,88.64
2023-01-10T07:03:10.330Z,88.60
2023-01-10T07:08:13.801Z,88.51
2023-01-10T07:13:17.358Z,88.62
2023-01-10T07:18:21.247Z,88.56
2023-01-10T07:23:24.847Z,88.54
2023-01-10T07:28:28.617Z,88.35
2023-01-10T07:33:32.781Z,88.36
2023-01-10T07:38:38.371Z,88.33
2023-01-10T07:43:42.058Z,88.20
2023-01-10T07:48:47.258Z,88.13
2023-01-10T07:53:51.123Z,88.18
2023-01-10T07:58:54.854Z,88.31
2023-01-10T08:03:59.275Z,88.18
2023-01-10T08:09:05.649Z,88.03
2023-01-10T08:14:09.554Z,88.01
2023-01-10T08:19:17.267Z,88.00
2023-01-10T08:24:20.865Z,87.93
2023-01-10T08:29:24.715Z,87.81
2023-01-10T08:34:28.405Z,87.90
2023-01-10T08:39:32.105Z,87.74
2023-01-10T08:44:36.074Z,87.45
2023-01-10T08:49:39.747Z,87.20
2023-01-10T08:54:44.224Z,87.31
2023-01-10T08:59:48.088Z,87.38
2023-01-10T09:04:52.028Z,87.42
2023-01-10T09:09:55.677Z,87.32
2023-01-10T09:14:59.590Z,87.30
2023-01-10T09:20:10.539Z,87.44
2023-01-10T09:25:14.136Z,87.32
2023-01-10T09:30:18.255Z,87.29
2023-01-10T09:35:24.333Z,87.29
2023-01-10T09:41:22.076Z,87.17
2023-01-10T09:47:08.385Z,86.97
2023-01-10T09:52:33.980Z,86.92
2023-01-10T09:57:38.034Z,86.88
2023-01-10T10:02:48.424Z,86.68
2023-01-10T10:08:02.657Z,86.51
2023-01-10T10:13:26.460Z,86.43
2023-01-10T10:19:02.250Z,86.27
2023-01-10T10:24:33.270Z,85.93
2023-01-10T10:29:43.250Z,85.74
2023-01-10T10:35:09.942Z,85.54
2023-01-10T10:40:33.534Z,85.57
2023-01-10T10:45:44.883Z,85.71
2023-01-10T10:51:26.105Z,86.00
2023-01-10T10:56:30.915Z,86.25
2023-01-10T11:01:34.933Z,86.25
2023-01-10T11:06:46.328Z,86.29
2023-01-10T11:11:52.357Z,86.39
2023-01-10T11:17:28.340Z,86.49
2023-01-10T11:22:47.633Z,86.53
2023-01-10T11:28:01.330Z,86.90
2023-01-10T11:33:20.414Z,86.68
2023-01-10T11:38:25.143Z,86.68
2023-01-10T11:43:40.561Z,86.57
2023-01-10T11:49:06.195Z,86.79
2023-01-10T11:54:29.456Z,86.79
2023-01-10T11:59:33.834Z,86.61
2023-01-10T12:04:47.524Z,86.46
2023-01-10T12:10:04.260Z,86.46
2023-01-10T12:15:30.151Z,86.48
2023-01-10T12:20:48.909Z,86.44
2023-01-10T12:26:10.674Z,86.47
2023-01-10T12:31:16.769Z,86.26
2023-01-10T12:37:31.042Z,86.29
2023-01-10T12:43:32.760Z,86.13
2023-01-10T12:48:54.165Z,85.92
2023-01-10T12:54:09.158Z,85.72
2023-01-10T12:59:37.157Z,85.64
2023-01-10T13:04:47.577Z,84.94
2023-01-10T13:09:52.155Z,84.71
2023-01-10T13:15:21.716Z,84.74
2023-01-10T13:20:39.877Z,84.60
2023-01-10T13:25:56.497Z,85.19
2023-01-10T13:31:32.865Z,85.68
2023-01-10T13:36:45.018Z,85.94
2023-01-10T13:42:26.421Z,86.03
2023-01-10T13:47:46.811Z,85.69
2023-01-10T13:52:52.947Z,85.44
2023-01-10T13:58:01.866Z,85.47
2023-01-10T14:03:06.848Z,85.60
2023-01-10T14:08:18.496Z,85.79
2023-01-10T14:13:23.906Z,85.83
2023-01-10T14:18:42.075Z,85.99
2023-01-10T14:23:53.527Z,86.03
2023-01-10T14:29:01.578Z,86.00
2023-01-10T14:34:18.472Z,85.93
2023-01-10T14:39:24.700Z,86.06
2023-01-10T14:44:37.691Z,86.35
2023-01-10T14:49:54.317Z,86.43
2023-01-10T14:55:22.854Z,86.57
2023-01-10T15:00:37.146Z,86.64
2023-01-10T15:05:50.451Z,86.91
2023-01-10T15:11:08.941Z,87.04
2023-01-10T15:16:23.421Z,87.17
2023-01-10T15:21:27.864Z,87.43
2023-01-10T15:26:33.824Z,87.61
2023-01-10T15:31:40.349Z,88.00
2023-01-10T15:36:51.709Z,88.01
2023-01-10T15:42:10.383Z,88.25
2023-01-10T15:47:49.990Z,88.43
2023-01-10T15:53:05.435Z,88.49
2023-01-10T15:58:36.815Z,88.47
2023-01-10T16:03:57.162Z,88.57
2023-01-10T16:09:06.428Z,88.80
2023-01-10T16:14:10.123Z,88.96
2023-01-10T16:19:14.746Z,89.03
2023-01-10T16:24:25.858Z,89.00
2023-01-10T16:29:30.168Z,89.01
2023-01-10T16:34:34.911Z,89.29
2023-01-10T16:39:40.612Z,89.44
2023-01-10T16:44:45.896Z,89.55
2023-01-10T16:49:49.649Z,89.69
2023-01-10T16:54:53.933Z,89.79
2023-01-10T16:59:57.665Z,89.83
2023-01-10T17:05:01.414Z,89.97
2023-01-10T17:10:06.461Z,90.00
2023-01-10T17:15:15.772Z,90.11
2023-01-10T17:20:20.615Z,90.25
2023-01-10T17:25:25.314Z,90.31
2023-01-10T17:30:28.940Z,90.21
2023-01-10T17:35:34.186Z,90.19
2023-01-10T17:40:45.982Z,90.21
2023-01-10T17:45:52.098Z,90.14
2023-01-10T17:51:00.185Z,90.00
2023-01-10T17:56:32.240Z,89.76
2023-01-10T18:01:36.500Z,89.43
2023-01-10T18:06:40.512Z,89.46
2023-01-10T18:11:45.575Z,89.26
2023-01-10T18:16:50.040Z,89.17
2023-01-10T18:21:53.883Z,89.11
2023-01-10T18:26:58.580Z,89.03
2023-01-10T18:32:02.728Z,88.89
2023-01-10T18:37:06.703Z,88.92
2023-01-10T18:42:12.222Z,88.79
2023-01-10T18:47:16.141Z,88.76
2023-01-10T18:52:21.695Z,88.79
2023-01-10T18:57:26.043Z,88.79
2023-01-10T19:02:30.182Z,88.71
2023-01-10T19:07:34.308Z,88.67
2023-01-10T19:12:41.052Z,88.79
2023-01-10T19:17:46.592Z,88.84
2023-01-10T19:22:50.288Z,88.85
2023-01-10T19:27:54.539Z,88.83
2023-01-10T19:33:17.549Z,88.82
2023-01-10T19:38:21.522Z,89.06
2023-01-10T19:43:26.893Z,89.07
2023-01-10T19:48:30.918Z,89.40
2023-01-10T19:53:39.486Z,89.57
2023-01-10T19:58:43.074Z,89.46
2023-01-10T20:03:49.290Z,89.65
2023-01-10T20:08:55.293Z,89.76
2023-01-10T20:14:02.277Z,89.84
2023-01-10T20:19:14.381Z,89.87
2023-01-10T20:24:21.842Z,89.83
2023-01-10T20:29:31.082Z,89.71
2023-01-10T20:34:35.384Z,89.75
2023-01-10T20:39:40.238Z,89.95
2023-01-10T20:44:44.034Z,90.14
2023-01-10T20:49:48.458Z,90.20
2023-01-10T20:54:54.990Z,90.16
2023-01-10T21:00:00.007Z,90.06
2023-01-10T21:05:04.369Z,90.11
2023-01-10T21:10:09.472Z,90.14
2023-01-10T21:15:13.625Z,90.15
2023-01-10T21:20:17.726Z,90.13
2023-01-10T21:25:21.635Z,90.04
2023-01-10T21:30:25.581Z,89.82
2023-01-10T21:35:29.870Z,89.61
2023-01-10T21:40:35.475Z,89.33
2023-01-10T21:45:42.626Z,89.10
2023-01-10T21:50:52.131Z,88.82
2023-01-10T21:56:00.405Z,88.73
2023-01-10T22:01:04.302Z,88.77
2023-01-10T22:06:08.688Z,88.72
2023-01-10T22:11:14.390Z,88.69
2023-01-10T22:16:20.348Z,88.64
2023-01-10T22:21:24.180Z,88.58
2023-01-10T22:26:28.877Z,88.78
2023-01-10T22:31:32.965Z,88.82
2023-01-10T22:36:37.721Z,88.93
2023-01-10T22:41:41.636Z,88.97
2023-01-10T22:46:46.554Z,88.85
2023-01-10T22:51:51.448Z,88.80
2023-01-10T22:56:55.236Z,88.75
2023-01-10T23:01:58.983Z,88.56
2023-01-10T23:07:03.042Z,88.50
2023-01-10T23:12:08.734Z,88.43
2023-01-10T23:17:12.715Z,88.47
2023-01-10T23:22:16.872Z,88.71
2023-01-10T23:27:20.937Z,88.84
2023-01-10T23:32:24.768Z,88.93
2023-01-10T23:37:28.714Z,88.81
2023-01-10T23:42:33.178Z,88.85
2023-01-10T23:47:37.675Z,88.69
2023-01-10T23:52:41.290Z,88.82
2023-01-10T23:57:45.732Z,88.76
